Time;durP1;ratioP1;P1;durP2;ratioP2;P2;SDS_P1;SDS_P2;PMS_P1;PMS_P2;Temp;Humidity;BMP_temperature;BMP_pressure;BME280_temperature;BME280_humidity;BME280_pressure;Samples;Min_cycle;Max_cycle;Signal;HPM_P1;HPM_P2
2021/06/21 00:00:07;;;;;;;34.08;23.67;;;18.70;99.90;;;;;;5055463;28;20021;-88
2021/06/21 00:02:32;;;;;;;35.08;25.00;;;18.70;99.90;;;;;;5054592;28;20017;-88
2021/06/21 00:04:58;;;;;;;38.72;25.23;;;18.70;99.90;;;;;;5055203;28;20025;-88
2021/06/21 00:07:24;;;;;;;37.53;24.77;;;18.60;99.90;;;;;;5054353;28;20389;-88
2021/06/21 00:09:50;;;;;;;34.95;24.52;;;18.60;99.90;;;;;;5054943;28;20021;-88
2021/06/21 00:12:16;;;;;;;38.38;25.67;;;18.60;99.90;;;;;;5057965;28;20017;-88
2021/06/21 00:14:43;;;;;;;38.00;24.63;;;18.60;99.90;;;;;;5057682;28;20021;-88
2021/06/21 00:17:09;;;;;;;34.10;24.20;;;18.50;99.90;;;;;;5057509;28;20067;-88
2021/06/21 00:19:35;;;;;;;33.72;24.13;;;18.50;99.90;;;;;;5057747;28;20021;-88
2021/06/21 00:22:02;;;;;;;34.63;23.70;;;18.50;99.90;;;;;;5057517;28;20033;-88
2021/06/21 00:24:28;;;;;;;35.28;23.35;;;18.50;99.90;;;;;;5058404;28;20025;-89
2021/06/21 00:26:54;;;;;;;30.50;22.65;;;18.50;99.90;;;;;;5059219;28;20048;-88
2021/06/21 00:29:20;;;;;;;29.23;23.15;;;18.50;99.90;;;;;;5057750;28;20120;-87
2021/06/21 00:31:45;;;;;;;31.80;23.23;;;18.50;99.90;;;;;;5057144;28;20043;-88
2021/06/21 00:34:11;;;;;;;33.15;22.70;;;18.50;99.90;;;;;;5056238;28;20021;-88
2021/06/21 00:36:38;;;;;;;32.92;22.45;;;18.50;99.90;;;;;;5057034;28;20393;-88
2021/06/21 00:39:09;;;;;;;33.88;23.92;;;18.50;99.90;;;;;;5058030;28;20135;-89
2021/06/21 00:41:36;;;;;;;30.85;23.50;;;18.50;99.90;;;;;;5057131;28;20028;-89
2021/06/21 00:44:01;;;;;;;28.63;22.17;;;18.40;99.90;;;;;;5056955;28;20025;-89
2021/06/21 00:46:28;;;;;;;31.95;23.35;;;18.40;99.90;;;;;;5057034;28;20036;-89
2021/06/21 00:48:53;;;;;;;33.45;24.63;;;18.30;99.90;;;;;;5057251;28;20021;-88
2021/06/21 00:51:19;;;;;;;35.20;24.33;;;18.30;99.90;;;;;;5056354;28;20047;-87
2021/06/21 00:53:46;;;;;;;34.80;24.63;;;18.30;99.90;;;;;;5060170;28;20021;-88
2021/06/21 00:56:11;;;;;;;33.58;24.25;;;18.30;99.90;;;;;;5057078;28;20021;-89
2021/06/21 00:58:37;;;;;;;32.42;24.25;;;18.30;99.90;;;;;;5056107;28;20032;-89
2021/06/21 01:01:04;;;;;;;33.88;24.67;;;18.20;99.90;;;;;;5057906;28;20100;-88
2021/06/21 01:03:29;;;;;;;39.85;25.95;;;18.20;99.90;;;;;;5056589;28;20033;-89
2021/06/21 01:05:55;;;;;;;33.72;25.63;;;18.20;99.90;;;;;;5056914;28;20075;-88
2021/06/21 01:08:21;;;;;;;34.28;26.83;;;18.20;99.90;;;;;;5055986;28;20021;-88
2021/06/21 01:10:50;;;;;;;37.05;27.25;;;18.20;99.90;;;;;;5055276;28;20024;-88
2021/06/21 01:13:46;;;;;;;33.80;26.45;;;18.20;99.90;;;;;;5056053;28;20025;-87
2021/06/21 01:16:29;;;;;;;38.65;27.08;;;18.20;99.90;;;;;;5056008;28;20112;-87
2021/06/21 01:19:21;;;;;;;36.42;26.40;;;18.20;99.90;;;;;;5056085;28;20493;-88
2021/06/21 01:22:05;;;;;;;36.63;26.35;;;18.20;99.90;;;;;;5055837;28;20386;-87
2021/06/21 01:24:49;;;;;;;37.13;27.13;;;18.20;99.90;;;;;;5056244;28;20021;-88
2021/06/21 01:27:30;;;;;;;36.08;26.75;;;18.20;99.90;;;;;;5055785;28;20051;-88
2021/06/21 01:30:18;;;;;;;30.63;25.25;;;18.20;99.90;;;;;;5055701;28;20025;-88
2021/06/21 01:32:53;;;;;;;35.47;26.17;;;18.20;99.90;;;;;;5055601;28;20428;-88
2021/06/21 01:35:22;;;;;;;33.85;26.05;;;18.20;99.90;;;;;;5055636;28;20504;-88
2021/06/21 01:37:51;;;;;;;30.58;25.90;;;18.20;99.90;;;;;;5056015;28;20047;-88
2021/06/21 01:40:19;;;;;;;34.22;26.90;;;18.20;99.90;;;;;;5056069;28;20025;-88
2021/06/21 01:42:53;;;;;;;33.42;27.20;;;18.20;99.90;;;;;;5055991;28;20021;-88
2021/06/21 01:45:19;;;;;;;34.45;27.90;;;18.20;99.90;;;;;;5056629;28;20231;-88
2021/06/21 01:47:49;;;;;;;32.70;26.55;;;18.20;99.90;;;;;;5057084;28;20478;-88
2021/06/21 01:50:19;;;;;;;35.50;27.65;;;18.30;99.90;;;;;;5056141;28;20481;-88
2021/06/21 01:52:51;;;;;;;35.65;26.95;;;18.30;99.90;;;;;;5056923;28;20035;-89
2021/06/21 01:55:20;;;;;;;35.30;27.70;;;18.30;99.90;;;;;;5056524;28;20017;-89
2021/06/21 01:57:47;;;;;;;34.42;27.20;;;18.30;99.90;;;;;;5057281;28;20028;-89
2021/06/21 02:00:15;;;;;;;27.70;24.67;;;18.30;99.90;;;;;;5055172;28;20028;-90
2021/06/21 02:02:41;;;;;;;38.38;28.23;;;18.30;99.90;;;;;;5054497;28;20025;-90
2021/06/21 02:05:09;;;;;;;34.63;27.35;;;18.30;99.90;;;;;;5058968;28;20021;-89
2021/06/21 02:07:36;;;;;;;35.08;28.48;;;18.30;99.90;;;;;;5054976;28;20025;-89
2021/06/21 02:10:04;;;;;;;30.17;26.90;;;18.30;99.90;;;;;;5055568;28;20136;-90
2021/06/21 02:12:32;;;;;;;33.88;29.52;;;18.30;99.90;;;;;;5057414;28;20021;-90
2021/06/21 02:14:59;;;;;;;35.55;29.63;;;18.30;99.90;;;;;;5058558;28;20021;-90
2021/06/21 02:17:27;;;;;;;33.97;29.52;;;18.30;99.90;;;;;;5058032;28;20025;-89
2021/06/21 02:19:55;;;;;;;35.13;31.05;;;18.30;99.90;;;;;;5055997;28;20028;-88
2021/06/21 02:22:23;;;;;;;33.83;29.90;;;18.30;99.90;;;;;;5055234;28;20055;-88
2021/06/21 02:24:50;;;;;;;38.13;32.13;;;18.30;99.90;;;;;;5055119;28;20082;-88
2021/06/21 02:27:18;;;;;;;33.30;29.70;;;18.40;99.90;;;;;;5055216;28;20433;-89
2021/06/21 02:29:44;;;;;;;34.17;30.50;;;18.40;99.90;;;;;;5054734;28;20116;-89
2021/06/21 02:32:10;;;;;;;36.42;31.92;;;18.40;99.90;;;;;;5055712;28;20107;-89
2021/06/21 02:34:35;;;;;;;36.45;32.15;;;18.30;99.90;;;;;;5054463;28;20068;-89
2021/06/21 02:37:01;;;;;;;34.90;31.10;;;18.30;99.90;;;;;;5055316;28;20482;-89
2021/06/21 02:39:27;;;;;;;37.22;32.30;;;18.30;99.90;;;;;;5055316;28;20021;-90
2021/06/21 02:41:53;;;;;;;39.17;34.83;;;18.20;99.90;;;;;;5055596;28;20120;-87
2021/06/21 02:44:19;;;;;;;40.58;34.35;;;18.20;99.90;;;;;;5054051;28;20056;-88
2021/06/21 02:46:45;;;;;;;38.75;34.53;;;18.20;99.90;;;;;;5053768;28;20039;-87
2021/06/21 02:49:11;;;;;;;43.67;37.75;;;18.10;99.90;;;;;;5054425;28;20017;-88
2021/06/21 02:52:16;;;;;;;40.38;35.83;;;18.10;99.90;;;;;;5054515;28;20067;-87
2021/06/21 02:54:54;;;;;;;42.88;37.33;;;18.00;99.90;;;;;;5056086;28;20479;-88
2021/06/21 02:57:33;;;;;;;47.60;37.00;;;18.00;99.90;;;;;;5054892;28;20017;-87
2021/06/21 02:59:59;;;;;;;43.08;38.17;;;18.00;99.90;;;;;;5054921;28;20044;-89
2021/06/21 03:02:27;;;;;;;46.70;40.35;;;18.00;99.90;;;;;;5053200;28;20029;-87
2021/06/21 03:04:54;;;;;;;46.05;40.33;;;18.00;99.90;;;;;;5053906;28;20052;-88
2021/06/21 03:07:24;;;;;;;44.63;39.45;;;18.00;99.90;;;;;;5053799;28;20036;-87
2021/06/21 03:09:51;;;;;;;47.28;40.22;;;18.00;99.90;;;;;;5055045;28;20025;-86
2021/06/21 03:12:23;;;;;;;46.63;41.63;;;18.00;99.90;;;;;;5055428;28;20382;-86
2021/06/21 03:14:50;;;;;;;45.92;40.17;;;18.00;99.90;;;;;;5057370;28;20116;-88
2021/06/21 03:17:17;;;;;;;46.42;41.42;;;18.00;99.90;;;;;;5053674;28;20032;-88
2021/06/21 03:19:43;;;;;;;46.53;41.47;;;17.90;99.90;;;;;;5055305;28;20052;-88
2021/06/21 03:22:10;;;;;;;43.10;38.50;;;18.00;99.90;;;;;;5053996;28;20029;-87
2021/06/21 03:24:36;;;;;;;44.08;39.40;;;17.90;99.90;;;;;;5055983;28;20028;-87
2021/06/21 03:27:01;;;;;;;42.72;38.13;;;17.90;99.90;;;;;;5055114;28;20522;-86
2021/06/21 03:29:27;;;;;;;44.00;38.47;;;17.90;99.90;;;;;;5054015;28;20112;-87
2021/06/21 03:31:54;;;;;;;44.00;37.85;;;17.80;99.90;;;;;;5055044;28;20023;-87
2021/06/21 03:34:23;;;;;;;44.75;39.95;;;17.80;99.90;;;;;;5055197;28;20021;-87
2021/06/21 03:36:49;;;;;;;44.33;39.55;;;17.80;99.90;;;;;;5037643;28;20048;-88
2021/06/21 03:39:15;;;;;;;45.25;38.75;;;17.80;99.90;;;;;;5054119;28;20031;-87
2021/06/21 03:41:41;;;;;;;45.67;38.13;;;17.70;99.90;;;;;;5054839;28;20033;-87
2021/06/21 03:44:07;;;;;;;43.15;38.45;;;17.70;99.90;;;;;;5055255;28;20032;-89
2021/06/21 03:46:32;;;;;;;42.35;37.65;;;17.70;99.90;;;;;;5055944;28;20029;-89
2021/06/21 03:48:58;;;;;;;43.10;38.50;;;17.60;99.90;;;;;;5064984;28;20112;-88
2021/06/21 03:51:25;;;;;;;40.33;35.75;;;17.60;99.90;;;;;;5070533;28;20040;-87
2021/06/21 03:53:51;;;;;;;38.55;34.30;;;17.70;99.90;;;;;;5064067;28;20021;-88
2021/06/21 03:56:17;;;;;;;38.22;34.17;;;17.60;99.90;;;;;;5062480;28;20032;-88
2021/06/21 03:58:45;;;;;;;38.28;34.17;;;17.60;99.90;;;;;;5064921;28;20372;-88
2021/06/21 04:01:12;;;;;;;33.55;29.98;;;17.60;99.90;;;;;;5057804;28;20039;-88
2021/06/21 04:03:38;;;;;;;30.88;27.20;;;17.50;99.90;;;;;;5057602;28;20025;-89
2021/06/21 04:06:04;;;;;;;30.88;27.67;;;17.30;99.90;;;;;;5058082;28;20119;-88
2021/06/21 04:08:29;;;;;;;31.33;28.00;;;17.20;99.90;;;;;;5056940;28;20025;-87
2021/06/21 04:10:55;;;;;;;33.72;29.23;;;17.20;99.90;;;;;;5058705;28;20052;-87
2021/06/21 04:13:21;;;;;;;32.30;28.95;;;17.10;99.90;;;;;;5058332;28;20074;-87
2021/06/21 04:15:47;;;;;;;31.55;27.48;;;17.10;99.90;;;;;;5058661;28;20116;-87
2021/06/21 04:18:17;;;;;;;33.33;28.08;;;17.10;99.90;;;;;;5059768;28;20036;-88
2021/06/21 04:20:44;;;;;;;32.33;28.92;;;17.20;99.90;;;;;;5059944;28;20056;-88
2021/06/21 04:23:11;;;;;;;30.20;27.00;;;17.20;99.90;;;;;;5057609;28;20057;-89
2021/06/21 04:25:36;;;;;;;30.08;26.92;;;17.20;99.90;;;;;;5057752;28;20039;-89
2021/06/21 04:28:04;;;;;;;26.23;23.55;;;17.10;99.90;;;;;;5056321;28;20464;-89
2021/06/21 04:30:30;;;;;;;29.80;25.58;;;16.90;99.90;;;;;;5058564;28;20039;-89
2021/06/21 04:32:56;;;;;;;27.30;24.10;;;16.90;99.90;;;;;;5057846;28;20444;-89
2021/06/21 04:35:25;;;;;;;26.55;23.77;;;16.90;99.90;;;;;;5058229;28;20053;-89
2021/06/21 04:37:51;;;;;;;27.27;24.45;;;16.80;99.90;;;;;;5057276;28;20028;-89
2021/06/21 04:40:20;;;;;;;24.35;21.95;;;16.70;99.90;;;;;;5057223;28;20021;-90
2021/06/21 04:42:47;;;;;;;25.52;22.92;;;16.80;99.90;;;;;;5057306;28;20021;-88
2021/06/21 04:45:13;;;;;;;26.60;23.90;;;16.70;99.90;;;;;;5058322;28;20094;-89
2021/06/21 04:47:40;;;;;;;26.40;23.65;;;16.70;99.90;;;;;;5056812;28;20534;-89
2021/06/21 04:50:09;;;;;;;27.40;24.60;;;16.60;99.90;;;;;;5059814;28;20032;-89
2021/06/21 04:52:37;;;;;;;28.48;25.58;;;16.60;99.90;;;;;;5059239;28;20017;-88
2021/06/21 04:55:05;;;;;;;30.98;27.38;;;16.60;99.90;;;;;;5057469;28;20052;-88
2021/06/21 04:57:33;;;;;;;30.27;27.17;;;16.70;99.90;;;;;;5056175;28;20025;-88
2021/06/21 04:59:58;;;;;;;29.42;26.33;;;16.60;99.90;;;;;;5055786;28;20036;-88
2021/06/21 05:02:24;;;;;;;29.27;26.27;;;16.60;99.90;;;;;;5056433;28;20021;-89
2021/06/21 05:04:50;;;;;;;30.00;26.90;;;16.60;99.90;;;;;;5058047;28;20029;-88
2021/06/21 05:07:16;;;;;;;29.02;25.98;;;16.60;99.90;;;;;;5057354;28;20064;-89
2021/06/21 05:09:42;;;;;;;27.75;24.40;;;16.50;99.90;;;;;;5056668;28;20013;-89
2021/06/21 05:12:09;;;;;;;31.48;28.08;;;16.50;99.90;;;;;;5055940;28;20021;-88
2021/06/21 05:14:36;;;;;;;30.27;27.08;;;16.50;99.90;;;;;;5057285;28;20485;-89
2021/06/21 05:17:03;;;;;;;29.42;26.33;;;16.60;99.90;;;;;;5056604;28;20052;-89
2021/06/21 05:19:28;;;;;;;28.67;25.70;;;16.60;99.90;;;;;;5057982;28;20096;-88
2021/06/21 05:21:54;;;;;;;29.40;25.73;;;16.50;99.90;;;;;;5055422;28;20053;-88
2021/06/21 05:24:19;;;;;;;26.75;23.98;;;16.50;99.90;;;;;;5056503;28;20063;-88
2021/06/21 05:26:45;;;;;;;27.67;24.88;;;16.60;99.90;;;;;;5057729;28;20053;-89
2021/06/21 05:29:11;;;;;;;27.25;24.27;;;16.60;99.90;;;;;;5057203;28;20029;-88
2021/06/21 05:31:36;;;;;;;25.92;23.30;;;16.70;99.90;;;;;;5056459;28;20090;-87
2021/06/21 05:34:02;;;;;;;21.92;19.73;;;16.60;99.90;;;;;;5056249;28;20118;-89
2021/06/21 05:36:28;;;;;;;23.52;20.55;;;16.60;99.90;;;;;;5055032;28;20029;-89
2021/06/21 05:38:54;;;;;;;21.98;19.73;;;16.50;99.90;;;;;;5056416;28;20056;-88
2021/06/21 05:41:19;;;;;;;21.95;19.60;;;16.50;99.90;;;;;;5055914;28;20021;-90
2021/06/21 05:43:45;;;;;;;21.55;19.35;;;16.40;99.90;;;;;;5056909;28;20032;-88
2021/06/21 05:46:11;;;;;;;22.00;19.60;;;16.50;99.90;;;;;;5057738;28;20041;-88
2021/06/21 05:48:36;;;;;;;19.80;17.70;;;16.60;99.90;;;;;;5069207;28;20069;-90
2021/06/21 05:51:02;;;;;;;19.20;17.40;;;16.50;99.90;;;;;;5075877;28;20016;-88
2021/06/21 05:53:29;;;;;;;18.75;16.92;;;16.60;99.90;;;;;;5077069;28;20028;-89
2021/06/21 05:55:56;;;;;;;19.85;17.33;;;16.50;99.90;;;;;;5077155;28;20103;-89
2021/06/21 05:58:21;;;;;;;19.85;17.92;;;16.50;99.90;;;;;;5077958;28;20115;-89
2021/06/21 06:00:47;;;;;;;20.08;18.10;;;16.50;99.90;;;;;;5077483;28;20113;-85
2021/06/21 06:03:15;;;;;;;18.58;16.77;;;16.60;99.90;;;;;;5077913;28;20037;-89
2021/06/21 06:05:41;;;;;;;19.58;17.42;;;16.70;99.90;;;;;;5056498;28;20028;-89
2021/06/21 06:08:07;;;;;;;20.80;17.83;;;16.70;99.90;;;;;;5074071;28;20031;-89
2021/06/21 06:10:33;;;;;;;19.77;17.55;;;16.80;99.90;;;;;;5055789;28;20150;-88
2021/06/21 06:12:59;;;;;;;20.00;18.00;;;16.80;99.90;;;;;;5065065;28;20048;-89
2021/06/21 06:15:25;;;;;;;21.13;18.92;;;16.90;99.90;;;;;;5072973;28;20028;-89
2021/06/21 06:17:51;;;;;;;19.92;17.83;;;17.10;99.90;;;;;;5073190;28;20389;-89
2021/06/21 06:20:18;;;;;;;18.90;16.88;;;17.20;99.90;;;;;;5074701;28;20031;-88
2021/06/21 06:22:46;;;;;;;19.50;17.65;;;17.10;99.90;;;;;;5074115;28;20024;-92
2021/06/21 06:25:16;;;;;;;21.80;17.10;;;17.20;99.90;;;;;;5076481;28;20580;-89
2021/06/21 06:27:42;;;;;;;18.63;16.42;;;17.10;99.90;;;;;;5074112;28;20039;-90
2021/06/21 06:30:10;;;;;;;22.30;20.20;;;17.10;99.90;;;;;;5069312;28;20029;-89
2021/06/21 06:32:36;;;;;;;24.10;21.73;;;17.10;99.90;;;;;;5062627;28;20031;-88
2021/06/21 06:35:06;;;;;;;25.83;23.33;;;17.10;99.90;;;;;;5071251;28;20028;-90
2021/06/21 06:37:32;;;;;;;29.15;26.15;;;17.10;99.90;;;;;;5073229;28;20032;-92
2021/06/21 06:39:58;;;;;;;29.67;26.58;;;17.00;99.90;;;;;;5071337;28;20021;-92
2021/06/21 06:42:24;;;;;;;28.55;25.52;;;16.90;99.90;;;;;;5066781;28;20166;-90
2021/06/21 06:44:50;;;;;;;28.38;25.50;;;16.80;99.90;;;;;;5061839;28;20500;-88
2021/06/21 06:47:16;;;;;;;26.02;23.25;;;16.70;99.90;;;;;;5062766;28;20033;-89
2021/06/21 06:49:42;;;;;;;27.10;24.30;;;16.70;99.90;;;;;;5064994;28;20039;-91
2021/06/21 06:52:08;;;;;;;24.15;21.70;;;16.80;99.90;;;;;;5069645;28;20375;-88
2021/06/21 06:57:11;;;;;;;19.27;17.42;;;16.70;99.90;;;;;;5074050;28;20036;-90
2021/06/21 06:59:39;;;;;;;16.42;14.75;;;16.70;99.90;;;;;;5070918;28;20047;-90
2021/06/21 07:02:07;;;;;;;15.32;13.73;;;16.70;99.90;;;;;;5064922;28;20105;-89
2021/06/21 07:04:36;;;;;;;18.02;15.63;;;16.60;99.90;;;;;;5071173;28;20024;-90
2021/06/21 07:07:02;;;;;;;16.85;15.25;;;16.60;99.90;;;;;;5072110;28;20067;-89
2021/06/21 07:09:30;;;;;;;17.00;15.23;;;16.60;99.90;;;;;;5068822;28;20112;-88
2021/06/21 07:11:57;;;;;;;16.10;14.40;;;16.60;99.90;;;;;;5065580;28;20031;-89
2021/06/21 07:14:23;;;;;;;16.73;14.80;;;16.60;99.90;;;;;;5073584;28;20104;-91
2021/06/21 07:16:49;;;;;;;16.10;14.50;;;16.60;99.90;;;;;;5072739;28;20087;-90
2021/06/21 07:19:18;;;;;;;15.77;13.07;;;16.70;99.90;;;;;;5066190;28;20094;-91
2021/06/21 07:21:44;;;;;;;15.02;13.43;;;16.60;99.90;;;;;;5052366;28;20044;-89
2021/06/21 07:24:10;;;;;;;16.77;14.80;;;16.70;99.90;;;;;;5072281;28;20735;-90
2021/06/21 07:26:37;;;;;;;17.00;15.25;;;16.80;99.90;;;;;;5074083;28;20080;-91
2021/06/21 07:29:04;;;;;;;18.50;16.80;;;16.80;99.90;;;;;;5071860;28;20025;-90
2021/06/21 07:31:30;;;;;;;18.20;16.50;;;16.80;99.90;;;;;;5058672;28;20469;-90
2021/06/21 07:33:57;;;;;;;22.65;18.17;;;16.90;99.90;;;;;;5067844;28;20098;-92
2021/06/21 07:36:23;;;;;;;21.27;19.30;;;16.90;99.90;;;;;;5076094;28;20027;-88
2021/06/21 07:38:49;;;;;;;21.85;19.80;;;16.90;99.90;;;;;;5065889;28;20025;-87
2021/06/21 07:41:15;;;;;;;22.38;20.20;;;16.90;99.90;;;;;;5069666;28;20385;-87
2021/06/21 07:43:42;;;;;;;22.58;20.38;;;16.80;99.90;;;;;;5074593;28;20036;-89
2021/06/21 07:46:08;;;;;;;22.85;20.65;;;16.80;99.90;;;;;;5078025;28;20024;-90
2021/06/21 07:48:43;;;;;;;22.92;20.63;;;16.90;99.90;;;;;;5077294;28;20074;-86
2021/06/21 07:51:10;;;;;;;21.13;18.92;;;17.10;99.90;;;;;;5078547;28;20469;-88
2021/06/21 07:53:37;;;;;;;18.73;17.02;;;17.00;99.90;;;;;;5071191;28;20017;-87
2021/06/21 07:56:05;;;;;;;20.30;18.40;;;16.90;99.90;;;;;;5060956;28;20081;-88
2021/06/21 07:58:37;;;;;;;19.27;17.48;;;16.80;99.90;;;;;;5072568;28;20024;-83
2021/06/21 08:01:04;;;;;;;20.48;18.42;;;16.90;99.90;;;;;;5068394;28;20024;-83
2021/06/21 08:03:29;;;;;;;19.73;17.77;;;17.00;99.90;;;;;;5063851;28;20082;-83
2021/06/21 08:05:55;;;;;;;16.95;15.45;;;17.10;99.90;;;;;;5075288;28;20615;-82
2021/06/21 08:08:22;;;;;;;18.38;14.90;;;17.20;99.90;;;;;;5064440;28;20025;-82
2021/06/21 08:10:48;;;;;;;16.17;14.68;;;17.20;99.90;;;;;;5078260;28;20017;-82
2021/06/21 08:13:14;;;;;;;15.35;13.93;;;17.20;99.90;;;;;;5062556;28;20024;-82
2021/06/21 08:15:39;;;;;;;15.82;14.18;;;17.20;99.90;;;;;;5068475;28;20030;-86
2021/06/21 08:18:05;;;;;;;16.27;14.70;;;17.30;99.90;;;;;;5076327;28;20353;-82
2021/06/21 08:20:33;;;;;;;15.57;14.20;;;17.50;99.90;;;;;;5077381;28;20062;-85
2021/06/21 08:22:58;;;;;;;14.10;12.88;;;17.60;99.90;;;;;;5069891;28;20432;-84
2021/06/21 08:25:24;;;;;;;14.07;12.60;;;17.80;99.90;;;;;;5067677;28;20032;-83
2021/06/21 08:27:50;;;;;;;11.73;10.73;;;17.90;99.90;;;;;;5078401;28;20044;-83
2021/06/21 08:30:16;;;;;;;13.27;12.07;;;18.00;99.90;;;;;;5076983;28;20028;-83
2021/06/21 08:32:42;;;;;;;12.98;11.88;;;17.80;99.90;;;;;;5065116;28;20036;-81
2021/06/21 08:35:09;;;;;;;11.35;10.30;;;17.50;99.90;;;;;;5069830;28;20078;-82
2021/06/21 08:37:35;;;;;;;11.82;10.77;;;17.60;99.90;;;;;;5077188;28;20083;-81
2021/06/21 08:40:05;;;;;;;12.80;11.52;;;17.70;99.90;;;;;;5077548;28;20536;-83
2021/06/21 08:42:31;;;;;;;13.63;12.35;;;18.00;99.90;;;;;;5069921;28;20138;-83
2021/06/21 08:44:59;;;;;;;11.63;10.52;;;17.90;99.90;;;;;;5065022;28;20389;-83
2021/06/21 08:47:27;;;;;;;11.73;10.55;;;17.80;99.90;;;;;;5078153;28;20119;-84
2021/06/21 08:49:54;;;;;;;11.68;10.57;;;17.80;99.90;;;;;;5067743;28;20522;-83
2021/06/21 08:52:20;;;;;;;11.30;10.25;;;18.00;99.90;;;;;;5068140;28;20055;-84
2021/06/21 08:54:47;;;;;;;12.23;10.70;;;18.30;99.90;;;;;;5075000;28;20038;-83
2021/06/21 08:57:13;;;;;;;10.73;9.77;;;18.80;99.90;;;;;;5070431;28;20021;-84
2021/06/21 08:59:40;;;;;;;10.52;9.65;;;19.30;99.90;;;;;;5073388;28;20032;-84
2021/06/21 09:02:07;;;;;;;10.65;9.75;;;19.20;99.90;;;;;;5075135;28;20570;-81
2021/06/21 09:04:37;;;;;;;12.15;11.15;;;18.80;99.90;;;;;;5071939;28;20030;-81
2021/06/21 09:07:18;;;;;;;12.00;11.00;;;18.70;99.90;;;;;;5068164;28;20029;-82
2021/06/21 09:09:44;;;;;;;10.55;9.75;;;18.90;99.90;;;;;;5074141;28;20016;-82
2021/06/21 09:12:10;;;;;;;10.25;9.45;;;19.10;99.90;;;;;;5073779;28;20080;-82
2021/06/21 09:14:37;;;;;;;9.23;8.50;;;18.80;99.90;;;;;;5075544;28;20460;-82
2021/06/21 09:17:12;;;;;;;9.25;8.48;;;18.70;99.90;;;;;;5078089;28;20101;-82
2021/06/21 09:19:50;;;;;;;9.13;8.23;;;18.70;99.90;;;;;;5073715;28;20025;-82
2021/06/21 09:22:34;;;;;;;8.55;7.95;;;18.50;99.90;;;;;;5075288;28;20021;-81
2021/06/21 09:25:06;;;;;;;8.52;7.93;;;18.50;99.90;;;;;;5073308;28;20481;-82
2021/06/21 09:27:32;;;;;;;8.02;7.43;;;18.70;99.90;;;;;;5077186;28;20079;-83
2021/06/21 09:30:11;;;;;;;6.80;6.30;;;18.90;99.90;;;;;;5072133;28;20739;-82
2021/06/21 09:32:49;;;;;;;9.20;8.30;;;18.80;99.90;;;;;;5077630;28;20021;-82
2021/06/21 09:35:30;;;;;;;8.38;7.68;;;18.90;99.90;;;;;;5062721;28;20047;-81
2021/06/21 09:37:57;;;;;;;8.98;8.18;;;18.60;99.90;;;;;;5073974;28;20016;-81
2021/06/21 09:40:33;;;;;;;9.98;9.23;;;18.50;99.90;;;;;;5077297;28;20024;-84
2021/06/21 09:43:22;;;;;;;10.55;9.75;;;18.60;99.90;;;;;;5076234;28;20035;-82
2021/06/21 09:46:14;;;;;;;11.77;10.45;;;18.70;99.90;;;;;;5072056;28;20032;-81
2021/06/21 09:48:54;;;;;;;11.65;10.15;;;18.70;99.90;;;;;;5074164;28;20036;-81
2021/06/21 09:51:30;;;;;;;11.27;10.48;;;18.50;99.90;;;;;;5066833;28;20020;-81
2021/06/21 09:54:07;;;;;;;12.90;11.95;;;18.30;99.90;;;;;;5067679;28;20021;-81
2021/06/21 09:56:49;;;;;;;11.70;10.65;;;18.10;99.90;;;;;;5070821;28;20035;-81
2021/06/21 09:59:19;;;;;;;10.23;9.43;;;18.00;99.90;;;;;;5068459;28;20032;-81
2021/06/21 10:01:58;;;;;;;10.88;10.07;;;17.90;99.90;;;;;;5072409;28;20036;-82
2021/06/21 10:04:25;;;;;;;11.43;10.50;;;17.80;99.90;;;;;;5076138;28;20032;-81
2021/06/21 10:06:51;;;;;;;11.52;10.43;;;17.80;99.90;;;;;;5070545;28;20385;-81
2021/06/21 10:09:17;;;;;;;11.50;10.60;;;17.70;99.90;;;;;;5069459;28;20031;-83
2021/06/21 10:11:46;;;;;;;12.35;11.38;;;17.80;99.90;;;;;;5066876;28;20024;-82
2021/06/21 10:14:17;;;;;;;12.30;11.20;;;17.80;99.90;;;;;;5069846;28;20029;-82
2021/06/21 10:16:45;;;;;;;13.25;12.05;;;18.00;99.90;;;;;;5077357;28;20024;-82
2021/06/21 10:19:12;;;;;;;13.70;12.60;;;17.90;99.90;;;;;;5074614;28;20031;-82
2021/06/21 10:21:39;;;;;;;13.73;12.57;;;17.90;99.90;;;;;;5075035;28;20029;-85
2021/06/21 10:24:05;;;;;;;14.48;13.27;;;18.00;99.90;;;;;;5066916;28;20115;-84
2021/06/21 10:26:31;;;;;;;15.70;13.95;;;18.10;99.90;;;;;;5077669;28;20386;-82
2021/06/21 10:28:59;;;;;;;15.98;14.57;;;18.10;99.90;;;;;;5042780;28;20341;-80
2021/06/21 10:31:29;;;;;;;18.55;16.17;;;18.30;99.90;;;;;;5077028;28;20482;-79
2021/06/21 10:34:00;;;;;;;19.50;17.33;;;18.40;99.90;;;;;;5081803;28;20412;-80
2021/06/21 10:36:44;;;;;;;18.95;17.27;;;18.30;99.90;;;;;;5076379;28;20017;-79
2021/06/21 10:39:19;;;;;;;21.58;17.33;;;18.40;99.90;;;;;;5074726;28;20024;-79
2021/06/21 10:42:10;;;;;;;22.48;17.45;;;18.50;99.90;;;;;;5080662;28;20024;-79
2021/06/21 10:44:58;;;;;;;21.35;17.55;;;18.50;99.90;;;;;;5074410;28;20500;-79
2021/06/21 10:47:42;;;;;;;21.27;19.13;;;18.40;99.90;;;;;;5069898;28;20025;-79
2021/06/21 10:50:23;;;;;;;21.60;19.50;;;18.20;99.90;;;;;;5070013;28;20032;-81
2021/06/21 10:52:50;;;;;;;22.88;20.73;;;18.10;99.90;;;;;;5065841;28;20485;-82
2021/06/21 10:55:32;;;;;;;23.67;21.58;;;18.20;99.90;;;;;;5075597;28;20069;-80
2021/06/21 10:58:00;;;;;;;24.48;22.00;;;18.20;99.90;;;;;;5072701;28;20051;-82
2021/06/21 11:00:31;;;;;;;23.77;21.58;;;18.20;99.90;;;;;;5072214;28;20024;-82
2021/06/21 11:02:57;;;;;;;23.17;21.13;;;18.20;99.90;;;;;;5073713;28;20564;-81
2021/06/21 11:05:40;;;;;;;22.67;20.67;;;18.30;99.90;;;;;;5075268;28;20044;-84
2021/06/21 11:08:15;;;;;;;22.02;19.90;;;18.50;99.90;;;;;;5068366;28;20051;-81
2021/06/21 11:10:57;;;;;;;19.83;18.23;;;18.70;99.90;;;;;;5072336;28;20600;-81
2021/06/21 11:13:32;;;;;;;21.95;19.65;;;18.60;99.90;;;;;;5075274;28;20023;-81
2021/06/21 11:16:24;;;;;;;21.15;19.33;;;19.00;99.90;;;;;;5063352;28;20093;-82
2021/06/21 11:19:09;;;;;;;18.90;17.17;;;18.70;99.90;;;;;;5061562;28;20082;-80
2021/06/21 11:21:58;;;;;;;17.73;16.17;;;18.50;99.90;;;;;;5075759;28;20064;-81
2021/06/21 11:24:36;;;;;;;17.92;16.33;;;18.30;99.90;;;;;;5090321;28;20021;-82
2021/06/21 11:27:10;;;;;;;18.00;16.48;;;18.40;99.90;;;;;;5068963;28;20401;-83
2021/06/21 11:29:42;;;;;;;19.23;17.52;;;18.50;99.90;;;;;;5061146;28;20031;-82
2021/06/21 11:32:09;;;;;;;19.35;17.75;;;18.50;99.90;;;;;;5077999;28;20050;-81
2021/06/21 11:34:48;;;;;;;20.95;19.25;;;18.30;99.90;;;;;;5077550;28;20075;-80
2021/06/21 11:37:34;;;;;;;23.77;21.67;;;18.30;99.90;;;;;;5074778;28;20025;-81
2021/06/21 11:40:16;;;;;;;25.08;22.88;;;18.30;99.90;;;;;;5065159;28;20043;-80
2021/06/21 11:42:57;;;;;;;22.63;20.67;;;18.40;99.90;;;;;;5076751;28;20028;-81
2021/06/21 11:45:54;;;;;;;23.20;21.10;;;18.50;99.90;;;;;;5072100;28;20025;-81
2021/06/21 11:48:30;;;;;;;23.58;21.45;;;18.60;99.90;;;;;;5067067;28;20052;-80
2021/06/21 11:50:58;;;;;;;22.83;20.70;;;18.60;99.90;;;;;;5065421;28;20040;-81
2021/06/21 11:53:26;;;;;;;23.30;21.02;;;18.60;99.90;;;;;;5071847;28;20021;-81
2021/06/21 11:55:52;;;;;;;25.48;23.27;;;18.70;99.90;;;;;;5074116;28;20028;-81
2021/06/21 11:58:32;;;;;;;23.42;21.33;;;18.80;99.90;;;;;;5069200;28;20049;-81
2021/06/21 12:00:59;;;;;;;25.75;23.35;;;19.00;99.90;;;;;;5070395;28;20687;-81
2021/06/21 12:03:39;;;;;;;26.45;24.00;;;19.20;99.90;;;;;;5069910;28;20032;-81
2021/06/21 12:06:05;;;;;;;25.67;23.20;;;19.20;99.90;;;;;;5076455;28;20111;-84
2021/06/21 12:08:36;;;;;;;26.45;24.05;;;19.10;99.90;;;;;;5075144;28;20041;-83
2021/06/21 12:11:17;;;;;;;26.60;23.92;;;19.30;99.90;;;;;;5076381;28;20048;-83
2021/06/21 12:14:04;;;;;;;24.38;21.77;;;19.30;99.90;;;;;;5078318;28;20020;-84
2021/06/21 12:16:33;;;;;;;26.15;23.70;;;19.30;99.90;;;;;;5076422;28;20044;-90
2021/06/21 12:19:01;;;;;;;25.45;23.15;;;19.30;99.90;;;;;;5074732;28;20028;-89
2021/06/21 12:21:38;;;;;;;25.83;23.42;;;19.40;99.90;;;;;;5064619;28;20025;-82
2021/06/21 12:24:16;;;;;;;25.58;23.25;;;19.60;99.90;;;;;;5068465;28;20077;-84
2021/06/21 12:26:43;;;;;;;23.42;21.35;;;19.50;99.90;;;;;;5068048;28;20052;-82
2021/06/21 12:29:37;;;;;;;21.05;19.15;;;19.30;99.90;;;;;;5075553;28;20028;-82
2021/06/21 12:32:27;;;;;;;23.58;21.48;;;19.10;99.90;;;;;;5067629;28;20036;-89
2021/06/21 12:34:56;;;;;;;26.80;24.40;;;19.00;99.90;;;;;;5059472;28;20033;-89
2021/06/21 12:37:25;;;;;;;26.55;23.98;;;19.00;99.90;;;;;;5078601;28;20044;-90
2021/06/21 12:39:59;;;;;;;25.77;23.27;;;19.00;99.90;;;;;;5078168;28;20036;-89
2021/06/21 12:42:28;;;;;;;27.85;25.15;;;19.00;99.90;;;;;;5081017;28;20036;-91